createdAt,value
2018-09-25T00:00:23.023Z,1012.77
2018-09-25T00:01:32.863Z,1012.73
2018-09-25T00:02:42.968Z,1012.84
2018-09-25T00:03:53.049Z,1012.86
2018-09-25T00:05:03.245Z,1012.8
2018-09-25T00:06:13.311Z,1012.85
2018-09-25T00:07:23.123Z,1012.89
2018-09-25T00:08:33.268Z,1012.9
2018-09-25T00:09:43.340Z,1012.88
2018-09-25T00:10:53.166Z,1012.88
2018-09-25T00:12:03.242Z,1012.9
2018-09-25T00:13:13.314Z,1012.92
2018-09-25T00:14:23.388Z,1012.92
2018-09-25T00:15:33.452Z,1012.9
2018-09-25T00:16:43.571Z,1012.88
2018-09-25T00:17:53.668Z,1012.84
2018-09-25T00:19:03.538Z,1012.9
2018-09-25T00:20:13.622Z,1012.91
2018-09-25T00:21:23.695Z,1012.96
2018-09-25T00:22:33.772Z,1012.9
2018-09-25T00:23:43.846Z,1012.91
2018-09-25T00:24:53.696Z,1012.93
2018-09-25T00:26:03.510Z,1012.96
2018-09-25T00:27:13.331Z,1012.93
2018-09-25T00:28:22.605Z,1012.97
2018-09-25T00:29:32.406Z,1012.93
2018-09-25T00:30:42.482Z,1012.94
2018-09-25T00:31:52.573Z,1012.91
2018-09-25T00:33:02.672Z,1012.94
2018-09-25T00:34:12.751Z,1012.91
2018-09-25T00:35:22.824Z,1012.97
2018-09-25T00:36:32.897Z,1012.98
2018-09-25T00:37:42.967Z,1012.96
2018-09-25T00:38:53.097Z,1012.95
2018-09-25T00:40:06.268Z,1012.93
2018-09-25T00:41:16.074Z,1012.97
2018-09-25T00:42:26.208Z,1012.93
2018-09-25T00:43:36.266Z,1012.95
2018-09-25T00:44:46.325Z,1012.95
2018-09-25T00:45:56.396Z,1012.96
2018-09-25T00:47:06.549Z,1012.95
2018-09-25T00:48:16.995Z,1012.93
2018-09-25T00:49:26.804Z,1012.9
2018-09-25T00:50:36.920Z,1012.95
2018-09-25T00:51:47.089Z,1012.86
2018-09-25T00:52:56.921Z,1012.88
2018-09-25T00:54:07.047Z,1012.87
2018-09-25T00:55:16.841Z,1012.91
2018-09-25T00:56:26.904Z,1012.83
2018-09-25T00:57:36.967Z,1012.83
2018-09-25T00:58:47.025Z,1012.83
2018-09-25T00:59:57.187Z,1012.84
2018-09-25T01:01:08.922Z,1012.9
2018-09-25T01:02:18.998Z,1012.81
2018-09-25T01:03:29.079Z,1012.85
2018-09-25T01:04:39.143Z,1012.83
2018-09-25T01:05:49.214Z,1012.89
2018-09-25T01:06:59.341Z,1012.92
2018-09-25T01:08:09.402Z,1012.92
2018-09-25T01:09:19.519Z,1012.86
2018-09-25T01:10:29.581Z,1012.92
2018-09-25T01:11:39.674Z,1012.85
2018-09-25T01:12:49.779Z,1012.9
2018-09-25T01:13:59.837Z,1012.91
2018-09-25T01:15:09.913Z,1012.93
2018-09-25T01:16:19.713Z,1012.95
2018-09-25T01:17:29.770Z,1012.96
2018-09-25T01:18:39.590Z,1012.91
2018-09-25T01:19:49.645Z,1012.96
2018-09-25T01:20:59.725Z,1012.93
2018-09-25T01:22:09.843Z,1012.94
2018-09-25T01:23:19.949Z,1012.95
2018-09-25T01:24:30.010Z,1012.89
2018-09-25T01:25:39.817Z,1012.93
2018-09-25T01:26:49.623Z,1012.88
2018-09-25T01:27:59.776Z,1012.96
2018-09-25T01:29:09.902Z,1012.99
2018-09-25T01:30:19.750Z,1012.91
2018-09-25T01:31:29.811Z,1012.92
2018-09-25T01:32:39.639Z,1012.99
2018-09-25T01:33:49.451Z,1012.97
2018-09-25T01:34:59.356Z,1012.98
2018-09-25T01:36:09.422Z,1013
2018-09-25T01:37:19.541Z,1013.05
2018-09-25T01:38:29.613Z,1013.03
2018-09-25T01:39:39.660Z,1013.03
2018-09-25T01:40:49.785Z,1013.15
2018-09-25T01:41:59.838Z,1013.07
2018-09-25T01:43:09.884Z,1013.11
2018-09-25T01:44:19.987Z,1013.22
2018-09-25T01:45:30.065Z,1013.21
2018-09-25T01:46:40.133Z,1013.13
2018-09-25T01:47:50.200Z,1013.2
2018-09-25T01:49:02.834Z,1013.18
2018-09-25T01:50:12.652Z,1013.23
2018-09-25T01:51:22.748Z,1013.25
2018-09-25T01:52:32.845Z,1013.16
2018-09-25T01:53:42.935Z,1013.31
2018-09-25T01:54:53.011Z,1013.24
2018-09-25T01:56:04.284Z,1013.25
2018-09-25T01:57:14.607Z,1013.22
2018-09-25T01:58:27.112Z,1013.27
2018-09-25T01:59:41.091Z,1013.32
2018-09-25T02:00:50.625Z,1013.22
2018-09-25T02:02:00.807Z,1013.25
2018-09-25T02:03:10.630Z,1013.27
2018-09-25T02:04:20.164Z,1013.33
2018-09-25T02:05:30.227Z,1013.4
2018-09-25T02:06:40.144Z,1013.31
2018-09-25T02:07:50.202Z,1013.37
2018-09-25T02:09:00.275Z,1013.53
2018-09-25T02:10:10.134Z,1013.42
2018-09-25T02:11:20.200Z,1013.42
2018-09-25T02:12:30.273Z,1013.39
2018-09-25T02:13:40.334Z,1013.47
2018-09-25T02:14:50.408Z,1013.43
2018-09-25T02:16:00.477Z,1013.43
2018-09-25T02:17:10.590Z,1013.42
2018-09-25T02:18:20.649Z,1013.55
2018-09-25T02:19:30.726Z,1013.5
2018-09-25T02:20:40.786Z,1013.58
2018-09-25T02:21:50.873Z,1013.56
2018-09-25T02:23:01.798Z,1013.62
2018-09-25T02:24:11.884Z,1013.63
2018-09-25T02:25:21.697Z,1013.69
2018-09-25T02:26:31.765Z,1013.63
2018-09-25T02:27:41.567Z,1013.68
2018-09-25T02:28:50.843Z,1013.65
2018-09-25T02:30:03.312Z,1013.76
2018-09-25T02:31:13.394Z,1013.68
2018-09-25T02:32:23.474Z,1013.69
2018-09-25T02:33:33.292Z,1013.71
2018-09-25T02:34:43.360Z,1013.77
2018-09-25T02:35:53.499Z,1013.88
2018-09-25T02:37:03.575Z,1013.81
2018-09-25T02:38:13.772Z,1013.84
2018-09-25T02:39:23.844Z,1013.83
2018-09-25T02:40:33.907Z,1013.85
2018-09-25T02:41:43.976Z,1013.85
2018-09-25T02:42:54.029Z,1013.95
2018-09-25T02:44:03.853Z,1013.84
2018-09-25T02:45:13.984Z,1013.88
2018-09-25T02:46:23.808Z,1013.95
2018-09-25T02:47:33.888Z,1013.86
2018-09-25T02:48:43.939Z,1013.85
2018-09-25T02:49:54.023Z,1013.97
2018-09-25T02:51:04.126Z,1013.88
2018-09-25T02:52:14.201Z,1013.89
2018-09-25T02:53:24.022Z,1013.92
2018-09-25T02:54:34.100Z,1013.94
2018-09-25T02:55:44.160Z,1013.97
2018-09-25T02:56:53.952Z,1013.96
2018-09-25T02:58:04.416Z,1014.07
2018-09-25T02:59:14.524Z,1014.02
2018-09-25T03:00:24.603Z,1014.02
2018-09-25T03:01:34.390Z,1014.03
2018-09-25T03:34:03.987Z,1014.25
2018-09-25T03:35:14.058Z,1014.28
2018-09-25T03:36:24.113Z,1014.3
2018-09-25T03:37:33.652Z,1014.31
2018-09-25T03:38:43.747Z,1014.32
2018-09-25T03:39:53.841Z,1014.34
2018-09-25T03:41:03.927Z,1014.31
2018-09-25T03:42:14.005Z,1014.31
2018-09-25T03:43:24.082Z,1014.36
2018-09-25T03:44:34.156Z,1014.39
2018-09-25T03:45:44.240Z,1014.39
2018-09-25T03:46:54.318Z,1014.41
2018-09-25T03:48:05.889Z,1014.42
2018-09-25T03:49:15.994Z,1014.38
2018-09-25T03:50:26.083Z,1014.43
2018-09-25T03:51:35.634Z,1014.47
2018-09-25T03:52:45.680Z,1014.47
2018-09-25T03:53:55.743Z,1014.45
2018-09-25T03:55:06.685Z,1014.46
2018-09-25T03:56:16.769Z,1014.42
2018-09-25T03:57:26.890Z,1014.41
2018-09-25T03:58:36.959Z,1014.43
2018-09-25T03:59:46.764Z,1014.47
2018-09-25T04:00:56.878Z,1014.49
2018-09-25T04:02:07.004Z,1014.53
2018-09-25T04:03:17.075Z,1014.49
2018-09-25T04:04:26.891Z,1014.45
2018-09-25T04:05:36.672Z,1014.44
2018-09-25T04:06:46.765Z,1014.48
2018-09-25T04:07:56.843Z,1014.49
2018-09-25T04:09:07.766Z,1014.5
2018-09-25T04:10:17.843Z,1014.52
2018-09-25T04:11:27.908Z,1014.51
2018-09-25T04:12:38.000Z,1014.56
2018-09-25T04:13:48.078Z,1014.58
2018-09-25T04:14:57.622Z,1014.63
2018-09-25T04:16:08.334Z,1014.59
2018-09-25T04:17:18.402Z,1014.63
2018-09-25T04:18:28.229Z,1014.67
2018-09-25T04:19:38.354Z,1014.6
2018-09-25T04:20:48.418Z,1014.62
2018-09-25T04:21:58.485Z,1014.64
2018-09-25T04:23:08.563Z,1014.64
2018-09-25T04:24:18.653Z,1014.67
2018-09-25T04:25:28.735Z,1014.66
2018-09-25T04:26:39.583Z,1014.69
2018-09-25T04:27:49.379Z,1014.69
2018-09-25T04:28:59.179Z,1014.69
2018-09-25T04:30:09.280Z,1014.66
2018-09-25T04:31:19.407Z,1014.67
2018-09-25T04:32:29.478Z,1014.7
2018-09-25T04:33:39.549Z,1014.72
2018-09-25T04:34:49.362Z,1014.67
2018-09-25T04:35:59.221Z,1014.74
2018-09-25T04:37:09.331Z,1014.77
2018-09-25T04:38:19.574Z,1014.75
2018-09-25T04:39:29.645Z,1014.81
2018-09-25T04:40:39.447Z,1014.81
2018-09-25T04:41:49.543Z,1014.8
2018-09-25T04:42:59.586Z,1014.78
2018-09-25T04:44:09.701Z,1014.82
2018-09-25T04:45:19.506Z,1014.79
2018-09-25T04:46:29.299Z,1014.91
2018-09-25T04:47:38.852Z,1014.83
2018-09-25T04:48:48.809Z,1014.84
2018-09-25T04:49:58.674Z,1014.83
2018-09-25T04:51:10.680Z,1014.88
2018-09-25T04:52:20.756Z,1014.85
2018-09-25T04:53:30.928Z,1014.87
2018-09-25T04:54:40.994Z,1014.92
2018-09-25T04:55:51.059Z,1014.94
2018-09-25T04:57:01.155Z,1014.99
2018-09-25T04:58:11.787Z,1015.03
2018-09-25T04:59:21.605Z,1014.99
2018-09-25T05:00:31.671Z,1015.06
2018-09-25T05:01:41.795Z,1015.02
2018-09-25T05:02:51.869Z,1015.05
2018-09-25T05:04:01.945Z,1015.06
2018-09-25T05:05:12.061Z,1015.07
2018-09-25T05:06:22.179Z,1015.08
2018-09-25T05:07:32.326Z,1015.07
2018-09-25T05:08:42.407Z,1015.11
2018-09-25T05:09:52.574Z,1015.12
2018-09-25T05:11:03.605Z,1015.15
2018-09-25T05:12:13.429Z,1015.19
2018-09-25T05:13:24.765Z,1015.17
2018-09-25T05:14:34.579Z,1015.24
2018-09-25T05:15:45.034Z,1015.23
2018-09-25T05:16:54.843Z,1015.21
2018-09-25T05:18:05.066Z,1015.26
2018-09-25T05:19:15.569Z,1015.22
2018-09-25T05:20:25.356Z,1015.18
2018-09-25T05:21:35.426Z,1015.27
2018-09-25T05:22:45.267Z,1015.28
2018-09-25T05:23:55.362Z,1015.23
2018-09-25T05:25:05.490Z,1015.28
2018-09-25T05:26:15.384Z,1015.27
2018-09-25T05:27:25.481Z,1015.36
2018-09-25T05:28:35.601Z,1015.35
2018-09-25T05:29:45.687Z,1015.34
2018-09-25T05:30:55.849Z,1015.37
2018-09-25T05:32:05.925Z,1015.4
2018-09-25T05:33:16.020Z,1015.41
2018-09-25T05:34:26.126Z,1015.39
2018-09-25T05:35:36.273Z,1015.4
2018-09-25T05:36:46.399Z,1015.37
2018-09-25T05:37:56.466Z,1015.45
2018-09-25T05:39:08.241Z,1015.45
2018-09-25T05:40:18.111Z,1015.48
2018-09-25T05:41:27.992Z,1015.53
2018-09-25T05:42:37.282Z,1015.51
2018-09-25T05:43:47.110Z,1015.59
2018-09-25T05:44:57.169Z,1015.6
2018-09-25T05:46:07.248Z,1015.62
2018-09-25T05:47:17.037Z,1015.67
2018-09-25T05:48:27.245Z,1015.67
2018-09-25T05:49:38.242Z,1015.71
2018-09-25T05:50:48.310Z,1015.7
2018-09-25T05:51:58.383Z,1015.62
2018-09-25T05:53:08.458Z,1015.69
2018-09-25T05:54:18.575Z,1015.82
2018-09-25T05:55:28.400Z,1015.75
2018-09-25T05:56:38.539Z,1015.77
2018-09-25T05:57:48.699Z,1015.8
2018-09-25T05:58:58.777Z,1015.8
2018-09-25T06:00:10.935Z,1015.78
2018-09-25T06:01:21.014Z,1015.73
2018-09-25T06:02:31.111Z,1015.84
2018-09-25T06:03:41.217Z,1015.78
2018-09-25T06:04:51.037Z,1015.75
2018-09-25T06:06:02.469Z,1015.76
2018-09-25T06:07:12.548Z,1015.8
2018-09-25T06:08:22.679Z,1015.81
2018-09-25T06:09:32.852Z,1015.8
2018-09-25T06:10:43.339Z,1015.79
2018-09-25T06:11:53.176Z,1015.81
2018-09-25T06:13:03.002Z,1015.82
2018-09-25T06:14:13.060Z,1015.85
2018-09-25T06:15:22.890Z,1015.82
2018-09-25T06:16:32.993Z,1015.79
2018-09-25T06:17:42.592Z,1015.79
2018-09-25T06:18:52.673Z,1015.76
2018-09-25T06:20:02.472Z,1015.82
2018-09-25T06:21:12.536Z,1015.83
2018-09-25T06:22:22.701Z,1015.8
2018-09-25T06:23:32.794Z,1015.83
2018-09-25T06:24:42.340Z,1015.78
2018-09-25T06:25:52.419Z,1015.88
2018-09-25T06:27:02.269Z,1015.94
2018-09-25T06:28:12.382Z,1015.94
2018-09-25T06:29:22.218Z,1015.93
2018-09-25T06:30:32.073Z,1015.99
2018-09-25T06:31:42.143Z,1015.98
2018-09-25T06:32:51.951Z,1016.03
2018-09-25T06:34:02.009Z,1015.98
2018-09-25T06:35:11.558Z,1016.01
2018-09-25T06:36:21.670Z,1016.11
2018-09-25T06:37:31.494Z,1016.1
2018-09-25T06:38:41.565Z,1016.11
2018-09-25T06:39:51.856Z,1016.19
2018-09-25T06:41:02.125Z,1016.07
2018-09-25T06:42:12.093Z,1016.14
2018-09-25T06:43:22.179Z,1016.2
2018-09-25T06:44:32.254Z,1016.19
2018-09-25T06:45:42.070Z,1016.13
2018-09-25T06:46:51.897Z,1016.19
2018-09-25T06:48:04.165Z,1016.24
2018-09-25T06:49:14.244Z,1016.2
2018-09-25T06:50:24.303Z,1016.25
2018-09-25T06:51:34.365Z,1016.22
2018-09-25T06:52:44.418Z,1016.28
2018-09-25T06:53:54.210Z,1016.21
2018-09-25T06:55:04.143Z,1016.18
2018-09-25T06:56:14.764Z,1016.2
2018-09-25T06:57:24.842Z,1016.32
2018-09-25T06:58:34.933Z,1016.25
2018-09-25T06:59:45.782Z,1016.34
2018-09-25T07:00:55.884Z,1016.37
2018-09-25T07:02:08.491Z,1016.45
2018-09-25T07:03:18.568Z,1016.4
2018-09-25T07:04:28.871Z,1016.34
2018-09-25T07:05:38.999Z,1016.47
2018-09-25T07:06:49.065Z,1016.44
2018-09-25T07:07:59.144Z,1016.42
2018-09-25T07:09:10.976Z,1016.5
2018-09-25T07:10:21.190Z,1016.45
2018-09-25T07:11:32.587Z,1016.58
2018-09-25T07:12:42.163Z,1016.44
2018-09-25T07:13:52.228Z,1016.6
2018-09-25T07:15:02.015Z,1016.61
2018-09-25T07:16:11.816Z,1016.66
2018-09-25T07:17:21.998Z,1016.6
2018-09-25T07:18:31.923Z,1016.59
2018-09-25T07:19:42.005Z,1016.68
2018-09-25T07:20:52.063Z,1016.64
2018-09-25T07:22:02.117Z,1016.7
2018-09-25T07:23:12.505Z,1016.78
2018-09-25T07:24:22.638Z,1016.85
2018-09-25T07:25:32.842Z,1016.86
2018-09-25T07:26:42.898Z,1016.79
2018-09-25T07:27:52.971Z,1016.95
2018-09-25T07:29:05.351Z,1016.92
2018-09-25T07:30:15.405Z,1016.9
2018-09-25T07:31:25.584Z,1017
2018-09-25T07:32:35.389Z,1016.85
2018-09-25T07:33:44.946Z,1017.11
2018-09-25T07:34:55.011Z,1017.05
2018-09-25T07:36:05.072Z,1017
2018-09-25T07:37:15.154Z,1017.08
2018-09-25T07:38:24.964Z,1017.04
2018-09-25T07:39:35.050Z,1017.07
2018-09-25T07:40:44.965Z,1017.11
2018-09-25T07:41:55.057Z,1017.06
2018-09-25T07:43:05.116Z,1017.06
2018-09-25T07:44:14.663Z,1017.1
2018-09-25T07:45:24.955Z,1017.07
2018-09-25T07:46:34.786Z,1017.09
2018-09-25T07:47:44.864Z,1017.14
2018-09-25T07:48:54.934Z,1017.19
2018-09-25T07:50:05.011Z,1017.24
2018-09-25T07:51:14.819Z,1017.25
2018-09-25T07:52:24.981Z,1017.26
2018-09-25T07:53:35.060Z,1017.25
2018-09-25T07:54:44.890Z,1017.26
2018-09-25T07:55:54.431Z,1017.28
2018-09-25T07:57:05.546Z,1017.4
2018-09-25T07:58:15.677Z,1017.32
2018-09-25T07:59:25.215Z,1017.42
2018-09-25T08:00:35.316Z,1017.42
2018-09-25T08:01:45.414Z,1017.38
2018-09-25T08:02:55.583Z,1017.35
2018-09-25T08:04:07.342Z,1017.39
2018-09-25T08:05:17.144Z,1017.44
2018-09-25T08:06:27.201Z,1017.43
2018-09-25T08:07:37.274Z,1017.41
2018-09-25T08:08:47.409Z,1017.53
2018-09-25T08:09:57.784Z,1017.44
2018-09-25T08:11:08.254Z,1017.4
2018-09-25T08:12:18.323Z,1017.39
2018-09-25T08:13:28.386Z,1017.54
2018-09-25T08:14:38.456Z,1017.38
2018-09-25T08:15:48.581Z,1017.42
2018-09-25T08:16:58.676Z,1017.47
2018-09-25T08:18:08.767Z,1017.39
2018-09-25T08:19:19.013Z,1017.49
2018-09-25T08:20:28.837Z,1017.51
2018-09-25T08:21:39.012Z,1017.47
2018-09-25T08:22:49.159Z,1017.45
2018-09-25T08:23:59.234Z,1017.49
2018-09-25T08:25:09.304Z,1017.75
2018-09-25T08:26:19.374Z,1017.64
2018-09-25T08:27:29.468Z,1017.66
2018-09-25T08:28:39.268Z,1017.7
2018-09-25T08:29:49.408Z,1017.6
2018-09-25T08:30:59.699Z,1017.72
2018-09-25T08:32:09.624Z,1017.62
2018-09-25T08:33:19.695Z,1017.67
2018-09-25T08:34:29.780Z,1017.78
2018-09-25T08:35:39.314Z,1017.8
2018-09-25T08:36:49.406Z,1017.77
2018-09-25T08:37:59.597Z,1017.84
2018-09-25T08:39:09.775Z,1017.84
2018-09-25T08:40:20.610Z,1017.82
2018-09-25T08:41:30.722Z,1017.77
2018-09-25T08:42:40.818Z,1017.86
2018-09-25T08:43:50.905Z,1017.94
2018-09-25T08:45:00.956Z,1017.87
2018-09-25T08:46:11.030Z,1017.96
2018-09-25T08:47:21.103Z,1017.89
2018-09-25T08:48:30.912Z,1017.93
2018-09-25T08:49:40.999Z,1017.95
2018-09-25T08:50:51.068Z,1018.03
2018-09-25T08:52:01.147Z,1017.94
2018-09-25T08:53:11.255Z,1017.99
2018-09-25T08:54:21.394Z,1017.96
2018-09-25T08:55:31.521Z,1018.05
2018-09-25T08:56:41.604Z,1018.11
2018-09-25T08:57:51.683Z,1018.02
2018-09-25T08:59:01.757Z,1017.99
2018-09-25T09:00:11.573Z,1018.13
2018-09-25T09:01:21.730Z,1018.07
2018-09-25T09:02:31.549Z,1018.05
2018-09-25T09:03:41.619Z,1018.07
2018-09-25T09:04:51.420Z,1018
2018-09-25T09:06:02.439Z,1018.12
2018-09-25T09:07:12.523Z,1018.1
2018-09-25T09:08:22.704Z,1018.15
2018-09-25T09:09:32.656Z,1018.16
2018-09-25T09:10:42.720Z,1018.2
2018-09-25T09:11:52.791Z,1018.18
2018-09-25T09:13:02.900Z,1018.16
2018-09-25T09:14:12.975Z,1018.18
2018-09-25T09:15:23.046Z,1018.17
2018-09-25T09:16:33.126Z,1018.27
2018-09-25T09:17:43.251Z,1018.2
2018-09-25T09:18:53.316Z,1018.23
2018-09-25T09:20:04.408Z,1018.18
2018-09-25T09:21:15.084Z,1018.13
2018-09-25T09:22:25.159Z,1018.1
2018-09-25T09:23:34.970Z,1018.16
2018-09-25T09:24:45.134Z,1018.2
2018-09-25T09:25:54.952Z,1018.18
2018-09-25T09:27:04.498Z,1018.2
2018-09-25T09:28:14.590Z,1018.15
2018-09-25T09:29:24.658Z,1018.18
2018-09-25T09:30:34.736Z,1018.12
2018-09-25T09:31:44.821Z,1018.08
2018-09-25T09:32:54.380Z,1018.15
2018-09-25T09:34:04.183Z,1018.15
2018-09-25T09:35:13.980Z,1018.12
2018-09-25T09:36:24.092Z,1018.25
2018-09-25T09:37:33.626Z,1018.26
2018-09-25T09:38:43.786Z,1018.14
2018-09-25T09:39:53.863Z,1018.12
2018-09-25T09:41:04.064Z,1018.16
2018-09-25T09:42:14.111Z,1018.15
2018-09-25T09:43:23.991Z,1018.13
2018-09-25T09:44:33.808Z,1018.13
2018-09-25T09:45:43.884Z,1018.15
2018-09-25T09:46:53.953Z,1018.18
2018-09-25T09:48:04.775Z,1018.08
2018-09-25T09:49:14.737Z,1018.11
2018-09-25T09:50:24.827Z,1018.14
2018-09-25T09:51:35.517Z,1018.22
2018-09-25T09:52:45.589Z,1018.14
2018-09-25T09:53:55.409Z,1018.12
2018-09-25T09:55:05.571Z,1018.23
2018-09-25T09:56:15.661Z,1018.12
2018-09-25T09:57:25.746Z,1018.14
2018-09-25T09:58:35.815Z,1018.22
2018-09-25T09:59:45.666Z,1018.21
2018-09-25T10:00:55.848Z,1018.23
2018-09-25T10:02:05.925Z,1018.15
2018-09-25T10:03:16.010Z,1018.14
2018-09-25T10:04:26.074Z,1018.1
2018-09-25T10:05:36.159Z,1018.22
2018-09-25T10:06:46.312Z,1018.21
2018-09-25T10:07:56.789Z,1018.21
2018-09-25T10:09:06.860Z,1018.2
2018-09-25T10:10:16.962Z,1018.19
2018-09-25T10:11:27.031Z,1018.13
2018-09-25T10:12:36.920Z,1018.12
2018-09-25T10:13:47.022Z,1018.16
2018-09-25T10:14:57.205Z,1018.15
2018-09-25T10:16:07.300Z,1018.26
2018-09-25T10:17:17.399Z,1018.25
2018-09-25T10:18:27.474Z,1018.15
2018-09-25T10:19:37.531Z,1018.19
2018-09-25T10:20:47.074Z,1018.22
2018-09-25T10:21:57.161Z,1018.34
2018-09-25T10:23:07.236Z,1018.2
2018-09-25T10:24:17.321Z,1018.25
2018-09-25T10:25:27.512Z,1018.25
2018-09-25T10:26:37.596Z,1018.21
2018-09-25T10:27:47.678Z,1018.25
2018-09-25T10:28:57.743Z,1018.26
2018-09-25T10:30:07.751Z,1018.28
2018-09-25T10:31:17.824Z,1018.4
2018-09-25T10:32:28.016Z,1018.31
2018-09-25T10:33:38.101Z,1018.33
2018-09-25T10:34:48.058Z,1018.3
2018-09-25T10:35:58.146Z,1018.36
2018-09-25T10:37:07.942Z,1018.36
2018-09-25T10:38:18.008Z,1018.33
2018-09-25T10:39:28.180Z,1018.35
2018-09-25T10:40:38.259Z,1018.35
2018-09-25T10:41:48.350Z,1018.32
2018-09-25T10:42:58.468Z,1018.29
2018-09-25T10:44:08.389Z,1018.33
2018-09-25T10:45:18.468Z,1018.38
2018-09-25T10:46:28.563Z,1018.39
2018-09-25T10:47:38.629Z,1018.34
2018-09-25T10:48:48.734Z,1018.41
2018-09-25T10:49:58.863Z,1018.35
2018-09-25T10:51:11.015Z,1018.31
2018-09-25T10:52:21.088Z,1018.33
2018-09-25T10:53:31.163Z,1018.33
2018-09-25T10:54:40.984Z,1018.34
2018-09-25T10:55:51.163Z,1018.38
2018-09-25T10:57:02.062Z,1018.41
2018-09-25T10:58:12.172Z,1018.46
2018-09-25T10:59:22.254Z,1018.42
2018-09-25T11:00:32.440Z,1018.4
2018-09-25T11:01:42.535Z,1018.31
2018-09-25T11:02:52.740Z,1018.26
2018-09-25T11:04:03.583Z,1018.31
2018-09-25T11:05:13.682Z,1018.33
2018-09-25T11:06:23.494Z,1018.29
2018-09-25T11:07:33.643Z,1018.29
2018-09-25T11:08:43.731Z,1018.28
2018-09-25T11:09:53.544Z,1018.31
2018-09-25T11:11:03.503Z,1018.3
2018-09-25T11:12:13.640Z,1018.3
2018-09-25T11:13:23.719Z,1018.33
2018-09-25T11:14:33.817Z,1018.36
2018-09-25T11:15:43.922Z,1018.33
2018-09-25T11:16:54.035Z,1018.39
2018-09-25T11:18:03.891Z,1018.32
2018-09-25T11:19:14.050Z,1018.36
2018-09-25T11:20:24.134Z,1018.38
2018-09-25T11:21:34.309Z,1018.34
2018-09-25T11:22:44.381Z,1018.31
2018-09-25T11:23:54.495Z,1018.28
2018-09-25T11:25:04.577Z,1018.34
2018-09-25T11:26:14.150Z,1018.3
2018-09-25T11:27:24.225Z,1018.25
2018-09-25T11:28:34.354Z,1018.26
2018-09-25T11:29:44.600Z,1018.29
2018-09-25T11:30:54.757Z,1018.29
2018-09-25T11:32:04.590Z,1018.34
2018-09-25T11:33:14.670Z,1018.35
2018-09-25T11:34:24.768Z,1018.35
2018-09-25T11:35:34.876Z,1018.41
2018-09-25T11:36:44.997Z,1018.36
2018-09-25T11:37:55.137Z,1018.32
2018-09-25T11:39:05.246Z,1018.33
2018-09-25T11:40:15.057Z,1018.31
2018-09-25T11:41:25.208Z,1018.27
2018-09-25T11:42:35.564Z,1018.34
2018-09-25T11:43:45.652Z,1018.31
2018-09-25T11:44:55.847Z,1018.35
2018-09-25T11:46:05.885Z,1018.33
2018-09-25T11:47:16.169Z,1018.3
2018-09-25T11:48:26.326Z,1018.27
2018-09-25T11:49:36.424Z,1018.34
2018-09-25T11:50:46.351Z,1018.4
2018-09-25T11:51:56.424Z,1018.38
2018-09-25T11:53:06.520Z,1018.29
2018-09-25T11:54:16.363Z,1018.37
2018-09-25T11:55:26.456Z,1018.37
2018-09-25T11:56:36.312Z,1018.39
2018-09-25T11:57:45.871Z,1018.43
2018-09-25T11:58:55.940Z,1018.42
2018-09-25T12:00:06.309Z,1018.54
2018-09-25T12:01:16.929Z,1018.37
2018-09-25T12:02:27.188Z,1018.39
2018-09-25T12:03:38.718Z,1018.35
2018-09-25T12:04:49.516Z,1018.33
2018-09-25T12:05:59.335Z,1018.34
2018-09-25T12:07:09.420Z,1018.32
2018-09-25T12:08:19.502Z,1018.23
2018-09-25T12:09:29.071Z,1018.27
2018-09-25T12:10:38.885Z,1018.26
2018-09-25T12:11:48.778Z,1018.24
2018-09-25T12:12:58.888Z,1018.28
2018-09-25T12:14:09.604Z,1018.19
2018-09-25T12:15:19.552Z,1018.25
2018-09-25T12:16:29.139Z,1018.18
2018-09-25T12:17:38.995Z,1018.15
2018-09-25T12:18:48.883Z,1018.23
2018-09-25T12:19:59.054Z,1018.11
2018-09-25T12:21:09.395Z,1018.15
2018-09-25T12:22:19.468Z,1018.19
2018-09-25T12:23:29.682Z,1018.21
2018-09-25T12:24:40.001Z,1018.17
2018-09-25T12:25:49.816Z,1018.18
2018-09-25T12:26:59.112Z,1018.18
2018-09-25T12:28:09.201Z,1018.13
2018-09-25T12:29:19.314Z,1018.17
2018-09-25T12:30:29.230Z,1018.15
2018-09-25T12:31:39.350Z,1018.17
2018-09-25T12:32:49.255Z,1018.15
2018-09-25T12:33:59.665Z,1018.18
2018-09-25T12:35:09.533Z,1018.18
2018-09-25T12:36:19.619Z,1018.21
2018-09-25T12:37:29.712Z,1018.2
2018-09-25T12:38:39.616Z,1018.16
2018-09-25T12:39:49.852Z,1018.15
2018-09-25T12:41:00.015Z,1018.17
2018-09-25T12:42:10.316Z,1018.13
2018-09-25T12:43:20.394Z,1018.19
2018-09-25T12:44:30.211Z,1018.16
2018-09-25T12:45:40.314Z,1018.13
2018-09-25T12:46:50.442Z,1018.17
2018-09-25T12:48:02.023Z,1018.21
2018-09-25T12:49:12.131Z,1018.19
2018-09-25T12:50:22.211Z,1018.22
2018-09-25T12:51:32.274Z,1018.23
2018-09-25T12:52:42.401Z,1018.22
2018-09-25T12:53:52.492Z,1018.21
2018-09-25T12:55:02.570Z,1018.14
2018-09-25T12:56:12.651Z,1018.17
2018-09-25T12:57:22.746Z,1018.19
2018-09-25T12:58:32.826Z,1018.15
2018-09-25T12:59:43.031Z,1018.16
2018-09-25T13:00:53.104Z,1018.14
2018-09-25T13:02:03.635Z,1018.22
2018-09-25T13:03:13.717Z,1018.26
2018-09-25T13:04:23.869Z,1018.14
2018-09-25T13:05:33.959Z,1018.12
2018-09-25T13:06:44.041Z,1018.17
2018-09-25T13:07:54.240Z,1018.17
2018-09-25T13:09:06.171Z,1018.12
2018-09-25T13:10:16.245Z,1018.18
2018-09-25T13:11:26.323Z,1018.13
2018-09-25T13:12:36.402Z,1018.07
2018-09-25T13:13:46.480Z,1018.05
2018-09-25T13:14:56.591Z,1018.08
2018-09-25T13:16:06.749Z,1018.16
2018-09-25T13:17:16.998Z,1018.08
2018-09-25T13:18:26.597Z,1018.12
2018-09-25T13:19:36.676Z,1018.2
2018-09-25T13:20:46.502Z,1018.19
2018-09-25T13:21:56.584Z,1018.12
2018-09-25T13:23:06.397Z,1018.07
2018-09-25T13:24:16.568Z,1018.02
2018-09-25T13:25:26.652Z,1018.06
2018-09-25T13:26:36.772Z,1018.18
2018-09-25T13:27:46.896Z,1018.13
2018-09-25T13:28:56.713Z,1018.07
2018-09-25T13:30:09.437Z,1018.07
2018-09-25T13:31:19.516Z,1018.11
2018-09-25T13:32:29.619Z,1018.07
2018-09-25T13:33:39.500Z,1018.11
2018-09-25T13:34:49.596Z,1018.15
2018-09-25T13:35:59.428Z,1018.13
2018-09-25T13:37:09.519Z,1018.11
2018-09-25T13:38:19.584Z,1018.17
2018-09-25T13:39:29.665Z,1018.16
2018-09-25T13:40:39.801Z,1018.16
2018-09-25T13:41:49.891Z,1018.11
2018-09-25T13:42:59.688Z,1018.11
2018-09-25T13:44:09.873Z,1018.1
2018-09-25T13:45:20.428Z,1018.02
2018-09-25T13:46:30.249Z,1018.04
2018-09-25T13:47:40.072Z,1018
2018-09-25T13:48:50.144Z,1018.05
2018-09-25T13:50:00.353Z,1017.91
2018-09-25T13:51:10.455Z,1017.85
2018-09-25T13:52:20.529Z,1018.03
2018-09-25T13:53:30.615Z,1018.07
2018-09-25T13:54:40.702Z,1018
2018-09-25T13:55:50.788Z,1018.05
2018-09-25T13:57:03.303Z,1018
2018-09-25T13:58:13.418Z,1018.04
2018-09-25T13:59:23.549Z,1017.99
2018-09-25T14:00:33.637Z,1018.02
2018-09-25T14:01:43.733Z,1018.08
2018-09-25T14:02:53.891Z,1018.06
2018-09-25T14:04:03.724Z,1018.08
2018-09-25T14:05:13.817Z,1018.04
2018-09-25T14:06:23.635Z,1018.12
2018-09-25T14:07:33.723Z,1018.07
2018-09-25T14:08:43.806Z,1018.07
2018-09-25T14:09:53.886Z,1018.02
2018-09-25T14:11:06.198Z,1018.03
2018-09-25T14:12:16.308Z,1018.06
2018-09-25T14:13:26.390Z,1017.99
2018-09-25T14:14:36.491Z,1017.99
2018-09-25T14:15:46.283Z,1017.93
2018-09-25T14:16:56.373Z,1017.96
2018-09-25T14:18:08.795Z,1017.95
2018-09-25T14:19:18.622Z,1017.97
2018-09-25T14:20:28.768Z,1017.99
2018-09-25T14:21:38.587Z,1017.91
2018-09-25T14:22:48.646Z,1017.97
2018-09-25T14:23:58.473Z,1017.99
2018-09-25T14:25:08.547Z,1017.98
2018-09-25T14:26:18.610Z,1018.01
2018-09-25T14:27:28.523Z,1018.03
2018-09-25T14:28:38.618Z,1018.02
2018-09-25T14:29:48.724Z,1018
2018-09-25T14:30:58.921Z,1018.05
2018-09-25T14:32:08.464Z,1018.05
2018-09-25T14:33:18.539Z,1018.05
2018-09-25T14:34:28.361Z,1018.04
2018-09-25T14:35:38.609Z,1018.02
2018-09-25T14:36:48.701Z,1018.02
2018-09-25T14:37:58.279Z,1017.99
2018-09-25T14:39:08.384Z,1017.98
2018-09-25T14:40:18.538Z,1017.99
2018-09-25T14:41:28.361Z,1017.99
2018-09-25T14:42:38.496Z,1018.04